Time;durP1;ratioP1;P1;durP2;ratioP2;P2;SDS_P1;SDS_P2;PMS_P1;PMS_P2;Temp;Humidity;BMP_temperature;BMP_pressure;BME280_temperature;BME280_humidity;BME280_pressure;Samples;Min_cycle;Max_cycle;Signal;HPM_P1;HPM_P2
2022/04/26 03:37:26;;;;;;;6.13;4.47;;;;;;;8.72;69.44;101480.44;4988263;28;20061;-94
2022/04/26 03:39:52;;;;;;;7.75;4.78;;;;;;;8.65;69.53;101471.81;4986939;28;20029;-88
2022/04/26 03:42:17;;;;;;;7.57;4.30;;;;;;;8.63;70.13;101473.63;4986753;28;20030;-92
2022/04/26 03:44:42;;;;;;;7.00;4.30;;;;;;;8.61;70.01;101489.47;4990265;28;20038;-93
2022/04/26 03:47:08;;;;;;;6.53;4.82;;;;;;;8.53;69.89;101483.47;4970898;28;20104;-91
2022/04/26 03:49:34;;;;;;;9.50;5.20;;;;;;;8.49;70.63;101476.56;4987455;28;20038;-93
2022/04/26 03:51:59;;;;;;;6.60;4.72;;;;;;;8.49;70.49;101476.56;4991123;28;20034;-94
2022/04/26 03:54:25;;;;;;;8.57;4.53;;;;;;;8.53;70.25;101490.53;4988112;28;20030;-93
2022/04/26 03:56:51;;;;;;;7.15;4.70;;;;;;;8.48;70.41;101489.75;4984126;28;20041;-93
2022/04/26 03:59:18;;;;;;;11.25;5.00;;;;;;;8.50;70.52;101496.75;4970632;28;20061;-91
2022/04/26 04:01:44;;;;;;;8.43;4.93;;;;;;;8.55;70.80;101500.16;4968924;28;20065;-92
2022/04/26 04:04:10;;;;;;;7.07;5.15;;;;;;;8.60;70.51;101498.28;4986685;28;20062;-90
2022/04/26 04:06:35;;;;;;;7.95;5.03;;;;;;;8.62;70.59;101500.88;4987470;28;20038;-91
2022/04/26 04:09:00;;;;;;;9.68;4.80;;;;;;;8.58;70.66;101491.28;4967165;28;20038;-92
2022/04/26 04:11:26;;;;;;;8.85;6.03;;;;;;;8.60;70.75;101503.53;4987578;28;20084;-92
2022/04/26 04:13:51;;;;;;;8.55;5.25;;;;;;;8.62;70.92;101508.78;4976337;28;20379;-93
2022/04/26 04:16:17;;;;;;;6.93;4.93;;;;;;;8.60;70.84;101505.31;4983476;28;20038;-93
2022/04/26 04:21:26;;;;;;;9.93;5.60;;;;;;;8.65;71.05;101511.34;4987818;28;20646;-92
2022/04/26 04:23:51;;;;;;;10.00;5.13;;;;;;;8.68;71.09;101516.56;4987801;28;20089;-90
2022/04/26 04:26:16;;;;;;;10.13;5.15;;;;;;;8.65;71.26;101514.84;4990718;28;20034;-91
2022/04/26 04:28:42;;;;;;;7.47;4.75;;;;;;;8.63;71.38;101519.31;4988917;28;20051;-92
2022/04/26 04:31:10;;;;;;;11.07;5.07;;;;;;;8.61;71.33;101523.72;4966938;28;20302;-93
2022/04/26 04:33:36;;;;;;;11.23;5.50;;;;;;;8.63;71.32;101521.94;4987834;28;20506;-93
2022/04/26 04:36:01;;;;;;;9.18;5.05;;;;;;;8.70;71.33;101525.31;4976760;28;20249;-92
2022/04/26 04:38:26;;;;;;;7.63;5.18;;;;;;;8.69;71.36;101521.81;4985563;28;20494;-93
2022/04/26 04:40:53;;;;;;;10.63;5.57;;;;;;;8.68;71.37;101532.38;4984644;28;20754;-93
2022/04/26 04:43:18;;;;;;;7.00;5.38;;;;;;;8.73;71.60;101532.28;4988721;28;20025;-92
2022/04/26 04:45:44;;;;;;;7.47;5.38;;;;;;;8.68;71.63;101527.13;4992041;28;20157;-94
2022/04/26 04:48:09;;;;;;;11.52;5.50;;;;;;;8.70;71.91;101533.22;4991844;28;20041;-89
2022/04/26 04:50:35;;;;;;;6.97;5.60;;;;;;;8.75;71.79;101541.03;4974451;28;20107;-90
2022/04/26 04:53:01;;;;;;;8.13;5.25;;;;;;;8.74;71.15;101534.03;4972960;28;20047;-93
2022/04/26 04:55:26;;;;;;;19.88;6.03;;;;;;;8.74;71.21;101545.44;4971323;28;20050;-93
2022/04/26 04:57:52;;;;;;;7.05;5.05;;;;;;;8.73;71.56;101548.09;4977867;28;20112;-89
2022/04/26 05:00:17;;;;;;;10.82;5.75;;;;;;;8.71;71.72;101545.47;4972601;28;20038;-91
2022/04/26 05:02:43;;;;;;;7.97;5.47;;;;;;;8.81;71.66;101561.97;4972703;28;20072;-93
2022/04/26 05:05:08;;;;;;;9.50;6.10;;;;;;;8.81;71.36;101561.97;4972267;28;20041;-94
2022/04/26 05:07:34;;;;;;;9.35;5.78;;;;;;;8.81;71.26;101561.97;4989296;28;20018;-93
2022/04/26 05:09:59;;;;;;;8.30;5.50;;;;;;;8.78;71.09;101572.59;4994421;28;20117;-93
2022/04/26 05:12:25;;;;;;;7.03;5.65;;;;;;;8.75;71.38;101562.97;4979669;28;20040;-93
2022/04/26 05:14:50;;;;;;;8.60;5.53;;;;;;;8.76;71.26;101567.34;4987015;28;20677;-91
2022/04/26 05:17:15;;;;;;;11.05;5.18;;;;;;;8.77;71.50;101569.09;4988358;28;20045;-94
2022/04/26 05:19:40;;;;;;;8.38;5.70;;;;;;;8.79;71.82;101572.56;4993611;28;20065;-93
2022/04/26 05:22:10;;;;;;;7.50;5.13;;;;;;;8.77;71.41;101570.88;4986167;28;20022;-88
2022/04/26 05:24:56;;;;;;;11.40;5.53;;;;;;;8.84;71.13;101580.38;4987358;28;20532;-93
2022/04/26 05:27:22;;;;;;;9.95;5.60;;;;;;;8.89;71.09;101583.78;4969845;28;20067;-92
2022/04/26 05:29:48;;;;;;;12.02;5.38;;;;;;;8.84;71.11;101589.16;4975929;28;20026;-93
2022/04/26 05:32:13;;;;;;;8.93;5.82;;;;;;;8.92;71.09;101591.63;4971857;28;20034;-92
2022/04/26 05:34:38;;;;;;;10.00;5.53;;;;;;;8.87;71.18;101586.47;4987004;28;20110;-90
2022/04/26 05:37:04;;;;;;;8.27;5.43;;;;;;;8.91;71.39;101589.91;4992673;28;20077;-92
2022/04/26 05:39:29;;;;;;;12.25;5.90;;;;;;;8.92;71.05;101587.22;4996083;28;20045;-93
2022/04/26 05:41:54;;;;;;;7.40;5.40;;;;;;;8.96;71.48;101595.09;4994049;28;20033;-92
2022/04/26 05:44:19;;;;;;;12.00;5.82;;;;;;;9.06;71.63;101596.63;4973879;28;20025;-94
2022/04/26 05:46:45;;;;;;;11.90;6.18;;;;;;;9.04;70.86;101586.06;4974059;28;20117;-92
2022/04/26 05:49:10;;;;;;;8.80;5.65;;;;;;;9.15;70.96;101597.28;4969169;28;20485;-91
2022/04/26 05:51:36;;;;;;;10.20;5.65;;;;;;;9.26;70.47;101604.09;4972967;28;20030;-90
2022/04/26 05:54:01;;;;;;;8.02;5.53;;;;;;;9.30;70.03;101593.44;4992458;28;20513;-89
2022/04/26 05:56:26;;;;;;;9.45;5.97;;;;;;;9.41;70.33;101594.03;4990549;28;20093;-90
2022/04/26 05:58:52;;;;;;;10.57;6.13;;;;;;;9.49;69.97;101600.91;4968769;28;20524;-90
2022/04/26 06:01:17;;;;;;;9.88;6.43;;;;;;;9.51;70.15;101607.00;4969579;28;20124;-94
2022/04/26 06:03:42;;;;;;;7.97;5.50;;;;;;;9.60;69.77;101607.66;4971927;28;20030;-92
2022/04/26 06:06:07;;;;;;;9.57;6.05;;;;;;;9.67;69.51;101604.00;4992695;28;20037;-92
2022/04/26 06:08:33;;;;;;;11.93;6.43;;;;;;;9.84;69.84;101605.34;4987156;28;20030;-90
2022/04/26 06:10:58;;;;;;;9.02;6.10;;;;;;;9.90;68.85;101616.63;4965147;28;20026;-93
2022/04/26 06:13:23;;;;;;;10.63;6.45;;;;;;;9.88;68.80;101610.50;4988623;28;20070;-95
2022/04/26 06:15:49;;;;;;;13.50;6.80;;;;;;;9.95;68.76;101620.03;4975811;28;20494;-93
2022/04/26 06:18:14;;;;;;;9.15;6.38;;;;;;;9.90;68.97;101615.75;4972744;28;20586;-94
2022/04/26 06:20:39;;;;;;;9.95;6.28;;;;;;;9.92;68.81;101622.72;4985203;28;20094;-89
2022/04/26 06:23:05;;;;;;;12.70;7.15;;;;;;;9.93;68.61;101620.94;4986966;28;20083;-89
2022/04/26 06:25:33;;;;;;;13.27;6.78;;;;;;;9.84;68.51;101614.16;4991856;28;20092;-94
2022/04/26 06:27:58;;;;;;;11.07;8.32;;;;;;;9.84;68.70;101622.06;4993903;28;20520;-94
2022/04/26 06:30:24;;;;;;;12.05;8.20;;;;;;;9.93;68.94;101626.22;4971109;28;21323;-94
2022/04/26 06:32:49;;;;;;;11.23;7.65;;;;;;;10.02;68.52;101627.78;4986790;28;20096;-92
2022/04/26 06:35:15;;;;;;;10.60;7.47;;;;;;;10.03;68.35;101630.41;4993211;28;20034;-90
2022/04/26 06:37:40;;;;;;;12.80;8.40;;;;;;;10.07;68.85;101628.53;4975720;28;20201;-92
2022/04/26 06:40:06;;;;;;;12.85;7.72;;;;;;;10.20;68.10;101641.38;4974808;28;20508;-90
2022/04/26 06:42:31;;;;;;;11.93;8.32;;;;;;;10.21;68.37;101631.69;4967396;28;20604;-92
2022/04/26 06:44:57;;;;;;;18.30;7.90;;;;;;;10.30;68.30;101649.13;4974886;28;20117;-91
2022/04/26 06:47:22;;;;;;;12.00;8.10;;;;;;;10.27;66.91;101636.00;4984796;28;20496;-89
2022/04/26 06:49:47;;;;;;;13.68;8.18;;;;;;;10.26;67.69;101645.72;4969328;28;20088;-95
2022/04/26 06:52:14;;;;;;;12.27;8.93;;;;;;;10.36;67.34;101647.19;4981422;28;20030;-90
2022/04/26 06:54:39;;;;;;;13.35;8.48;;;;;;;10.39;67.45;101651.53;4989031;28;20066;-93
2022/04/26 06:57:04;;;;;;;13.20;8.85;;;;;;;10.40;66.98;101646.22;4993152;28;20030;-95
2022/04/26 06:59:29;;;;;;;12.75;9.32;;;;;;;10.48;66.51;101649.50;4986706;28;20030;-93
2022/04/26 07:01:55;;;;;;;14.02;8.80;;;;;;;10.48;67.16;101651.28;4990637;28;20034;-94
2022/04/26 07:04:21;;;;;;;10.98;8.05;;;;;;;10.49;66.44;101650.34;4993906;28;20054;-94
2022/04/26 07:06:47;;;;;;;14.50;8.32;;;;;;;10.50;66.43;101657.41;4993925;28;20062;-92
2022/04/26 07:09:13;;;;;;;9.70;7.95;;;;;;;10.56;66.80;101659.00;4989128;28;20600;-92
2022/04/26 07:11:38;;;;;;;13.27;9.02;;;;;;;10.62;67.10;101653.53;4972297;28;20109;-92
2022/04/26 07:14:03;;;;;;;15.68;8.93;;;;;;;10.61;65.94;101657.09;4990139;28;20034;-93
2022/04/26 07:16:29;;;;;;;16.38;8.68;;;;;;;10.66;65.32;101652.56;4988544;28;20037;-91
2022/04/26 07:18:55;;;;;;;12.55;8.65;;;;;;;10.68;66.05;101656.03;4990968;28;20108;-94
2022/04/26 07:21:21;;;;;;;12.93;8.38;;;;;;;10.73;66.01;101655.00;4967618;28;20061;-93
2022/04/26 07:23:46;;;;;;;11.93;8.55;;;;;;;10.80;65.31;101662.75;4983485;28;20030;-93
2022/04/26 07:26:11;;;;;;;14.63;8.60;;;;;;;10.86;65.48;101663.44;4968243;28;20580;-92
2022/04/26 07:28:37;;;;;;;15.82;9.18;;;;;;;11.00;64.21;101660.41;4968644;28;22524;-92
2022/04/26 07:31:02;;;;;;;18.67;8.15;;;;;;;11.18;63.58;101665.16;4983479;28;20490;-89
2022/04/26 07:36:11;;;;;;;12.05;7.95;;;;;;;11.60;62.58;101667.41;4988617;28;20522;-92
2022/04/26 07:38:37;;;;;;;15.95;8.40;;;;;;;11.76;62.90;101675.78;4990255;28;20058;-92
2022/04/26 07:41:03;;;;;;;12.48;7.88;;;;;;;11.78;61.82;101681.00;4985049;28;20389;-91
2022/04/26 07:43:28;;;;;;;11.07;8.10;;;;;;;11.86;60.19;101668.44;4986988;28;20018;-91
2022/04/26 07:45:53;;;;;;;12.70;8.00;;;;;;;11.91;61.02;101669.16;4992049;28;20481;-92
2022/04/26 07:48:21;;;;;;;9.20;7.18;;;;;;;12.04;61.47;101685.53;4968287;28;20046;-91
2022/04/26 07:50:48;;;;;;;11.40;7.70;;;;;;;12.07;60.32;101673.00;4991306;28;20125;-91
2022/04/26 07:53:13;;;;;;;9.68;7.72;;;;;;;12.17;61.08;101686.81;4988284;28;20031;-91
2022/04/26 07:55:39;;;;;;;14.25;7.50;;;;;;;12.24;59.57;101686.59;4956395;28;20068;-89
2022/04/26 07:58:04;;;;;;;9.50;7.28;;;;;;;12.23;59.35;101684.84;4984945;28;20038;-92
2022/04/26 08:00:30;;;;;;;10.15;7.70;;;;;;;12.20;59.19;101678.78;4974904;28;20081;-88
2022/04/26 08:02:55;;;;;;;12.73;7.63;;;;;;;12.20;58.92;101682.28;4988084;28;20018;-90
2022/04/26 08:05:21;;;;;;;12.05;7.30;;;;;;;12.38;58.76;101696.72;4989359;28;20624;-92
2022/04/26 08:07:48;;;;;;;13.05;7.40;;;;;;;12.56;59.19;101699.69;4973656;28;20378;-93
2022/04/26 08:10:14;;;;;;;9.07;7.53;;;;;;;12.72;59.55;101709.69;4972267;28;20540;-92
2022/04/26 08:12:40;;;;;;;11.00;7.68;;;;;;;12.92;57.69;101708.13;4983126;28;20032;-91
2022/04/26 08:15:07;;;;;;;9.43;7.00;;;;;;;13.03;57.14;101708.59;4986318;28;20481;-90
2022/04/26 08:17:33;;;;;;;12.25;7.07;;;;;;;13.10;55.84;101706.56;4983021;28;20032;-91
2022/04/26 08:19:58;;;;;;;9.45;6.45;;;;;;;13.07;56.53;101712.88;4977957;28;20038;-90
2022/04/26 08:22:23;;;;;;;10.15;7.18;;;;;;;12.95;57.11;101714.16;4982803;28;20023;-89
2022/04/26 08:27:33;;;;;;;10.63;6.80;;;;;;;13.14;56.56;101721.47;4990503;28;20572;-91
2022/04/26 08:30:00;;;;;;;12.80;7.88;;;;;;;13.15;55.07;101726.75;4975735;28;20062;-91
2022/04/26 08:32:28;;;;;;;12.13;7.25;;;;;;;13.03;55.85;101732.47;4974453;28;20517;-92
2022/04/26 08:34:54;;;;;;;15.10;7.18;;;;;;;13.06;56.29;101737.69;4989807;28;20559;-92
2022/04/26 08:37:20;;;;;;;12.35;7.00;;;;;;;13.15;56.80;101734.72;4966928;28;20496;-91
2022/04/26 08:39:48;;;;;;;11.35;7.00;;;;;;;13.21;56.36;101736.25;4972867;28;20249;-92
2022/04/26 08:42:14;;;;;;;12.80;7.30;;;;;;;13.28;56.07;101729.81;4971963;28;20485;-91
2022/04/26 08:44:40;;;;;;;13.93;7.82;;;;;;;13.42;55.31;101732.81;4974679;28;20037;-91
2022/04/26 08:52:48;;;;;;;13.38;6.60;;;;;;;14.76;52.92;101739.84;4987647;28;20033;-91
2022/04/26 08:55:14;;;;;;;9.65;6.47;;;;;;;15.97;50.82;101734.31;4975878;28;20165;-90
2022/04/26 08:57:39;;;;;;;8.85;6.55;;;;;;;17.44;46.42;101739.25;4986595;28;20109;-90
2022/04/26 09:00:06;;;;;;;9.52;6.05;;;;;;;18.45;44.07;101736.22;4990853;28;20498;-89
2022/04/26 09:02:31;;;;;;;10.98;5.78;;;;;;;17.93;42.47;101734.75;4968533;28;20026;-93
2022/04/26 09:05:08;;;;;;;10.10;5.65;;;;;;;17.44;44.29;101736.56;4971806;28;20034;-91
2022/04/26 09:07:39;;;;;;;7.13;4.93;;;;;;;17.50;44.70;101739.78;4972176;28;20072;-92
2022/04/26 09:10:12;;;;;;;8.82;5.35;;;;;;;17.11;44.38;101747.28;4996123;28;20034;-90
2022/04/26 09:12:56;;;;;;;10.15;5.50;;;;;;;16.64;46.73;101751.44;4966536;28;20704;-90
2022/04/26 09:15:22;;;;;;;12.55;5.97;;;;;;;16.59;45.33;101749.00;4967933;28;20038;-90
2022/04/26 09:17:47;;;;;;;9.95;5.15;;;;;;;16.88;46.81;101752.03;4988806;28;20508;-90
2022/04/26 09:20:13;;;;;;;7.72;5.40;;;;;;;17.61;44.28;101744.53;4969533;28;20456;-91
2022/04/26 09:22:39;;;;;;;9.43;5.40;;;;;;;18.39;41.62;101737.47;4968184;28;20030;-92
2022/04/26 09:25:07;;;;;;;6.55;5.22;;;;;;;18.51;41.84;101747.47;4966673;28;20437;-93
2022/04/26 09:27:45;;;;;;;6.38;5.15;;;;;;;18.76;40.23;101744.22;4970650;28;20044;-90
2022/04/26 09:30:13;;;;;;;6.30;4.50;;;;;;;19.21;38.92;101747.72;4973141;28;20509;-91
2022/04/26 09:32:46;;;;;;;11.02;5.00;;;;;;;19.59;40.02;101753.38;4984736;28;20053;-90
2022/04/26 09:35:31;;;;;;;9.38;4.90;;;;;;;20.17;38.33;101762.16;4970414;28;20030;-90
2022/04/26 09:37:57;;;;;;;5.63;4.38;;;;;;;20.31;37.28;101751.38;4996825;28;20041;-91
2022/04/26 09:40:27;;;;;;;7.78;4.60;;;;;;;19.51;37.73;101765.53;4975974;28;20022;-91
2022/04/26 09:42:53;;;;;;;8.15;4.88;;;;;;;20.23;38.46;101763.59;4986494;28;20029;-90
2022/04/26 09:45:18;;;;;;;7.88;4.53;;;;;;;20.84;34.92;101762.16;4970663;28;20077;-91
2022/04/26 09:47:45;;;;;;;5.47;3.90;;;;;;;20.01;35.52;101774.88;4974077;28;20026;-91
2022/04/26 09:50:13;;;;;;;6.55;4.25;;;;;;;19.52;37.63;101759.19;4988163;28;20041;-91
2022/04/26 09:52:39;;;;;;;7.40;4.32;;;;;;;19.31;38.38;101773.00;4970455;28;20486;-91
2022/04/26 09:55:06;;;;;;;10.75;5.15;;;;;;;18.92;38.26;101762.03;4986648;28;20062;-90
2022/04/26 09:57:33;;;;;;;6.32;4.18;;;;;;;18.98;39.59;101772.38;4986368;28;20061;-90
2022/04/26 10:00:05;;;;;;;5.38;4.13;;;;;;;18.93;37.43;101767.31;4971009;28;20120;-90
2022/04/26 10:02:32;;;;;;;6.72;4.22;;;;;;;19.54;36.61;101776.94;4974168;28;20505;-92
2022/04/26 10:05:06;;;;;;;6.07;4.43;;;;;;;19.67;37.05;101782.41;4972325;28;20471;-91
2022/04/26 10:07:36;;;;;;;5.68;5.03;;;;;;;19.49;35.99;101780.84;4992055;28;20029;-92
2022/04/26 10:10:03;;;;;;;7.32;4.25;;;;;;;19.71;35.75;101783.94;4995538;28;20112;-90
2022/04/26 10:12:31;;;;;;;5.45;4.47;;;;;;;19.98;35.19;101775.94;4987496;28;20533;-90
2022/04/26 10:14:57;;;;;;;6.20;4.40;;;;;;;19.59;36.03;101790.91;4988317;28;20033;-91
2022/04/26 10:17:22;;;;;;;8.82;4.93;;;;;;;19.50;37.43;101796.84;4976891;28;20499;-91
2022/04/26 10:19:48;;;;;;;6.35;4.35;;;;;;;19.36;35.71;101784.31;4973075;28;20021;-91
2022/04/26 10:22:17;;;;;;;6.47;4.53;;;;;;;19.15;36.47;101784.75;4984678;28;20018;-90
2022/04/26 10:25:08;;;;;;;8.18;4.57;;;;;;;19.26;37.88;101798.38;4989016;28;20410;-91
2022/04/26 10:27:34;;;;;;;9.35;4.72;;;;;;;18.79;34.93;101800.28;4975586;28;20030;-90
2022/04/26 10:29:59;;;;;;;8.93;4.82;;;;;;;18.45;36.10;101803.16;4991635;28;20029;-91
2022/04/26 10:32:34;;;;;;;5.72;4.75;;;;;;;18.20;36.94;101806.41;4967669;28;20167;-92
2022/04/26 10:35:24;;;;;;;6.90;4.50;;;;;;;18.47;37.66;101814.69;4989964;28;20022;-92
2022/04/26 10:38:12;;;;;;;7.03;4.75;;;;;;;19.26;37.57;101811.78;4991230;28;20560;-91
2022/04/26 10:41:06;;;;;;;6.90;4.05;;;;;;;19.82;36.19;101810.09;4985997;28;20517;-91
2022/04/26 10:43:31;;;;;;;6.88;4.57;;;;;;;20.01;34.03;101812.47;4990050;28;20037;-91
2022/04/26 10:46:16;;;;;;;8.75;3.85;;;;;;;20.19;34.92;101815.75;4985606;28;20683;-91
2022/04/26 10:48:42;;;;;;;9.70;4.20;;;;;;;20.53;31.64;101819.84;4966438;28;20084;-92
2022/04/26 10:51:36;;;;;;;5.65;3.90;;;;;;;20.43;34.40;101826.75;4970771;28;20749;-91
2022/04/26 10:54:03;;;;;;;6.25;4.65;;;;;;;20.51;31.99;101819.91;4985721;28;20108;-92
2022/04/26 10:56:29;;;;;;;5.22;4.20;;;;;;;20.89;32.07;101825.44;4986479;28;20042;-94
2022/04/26 10:58:55;;;;;;;9.15;4.35;;;;;;;21.33;33.36;101829.59;4987534;28;20030;-91
2022/04/26 11:01:24;;;;;;;6.28;4.72;;;;;;;21.58;32.15;101826.03;4972018;28;20034;-93
2022/04/26 11:03:55;;;;;;;6.40;4.35;;;;;;;21.36;32.33;101817.78;4975429;28;20409;-93
2022/04/26 11:06:37;;;;;;;5.85;4.90;;;;;;;21.00;33.21;101827.38;4971465;28;20053;-93
2022/04/26 11:09:15;;;;;;;8.23;4.28;;;;;;;20.79;33.08;101821.63;4988369;28;20034;-92
2022/04/26 11:11:53;;;;;;;6.75;4.50;;;;;;;20.64;32.99;101814.59;4975647;28;20026;-92
2022/04/26 11:14:20;;;;;;;8.40;4.65;;;;;;;20.11;32.91;101819.81;4989306;28;20033;-93
2022/04/26 11:17:14;;;;;;;5.95;4.88;;;;;;;19.76;34.13;101815.84;4987556;28;20038;-92
2022/04/26 11:19:50;;;;;;;6.18;4.80;;;;;;;19.56;34.37;101814.38;4971622;28;20457;-92
2022/04/26 11:22:16;;;;;;;8.52;4.50;;;;;;;19.67;34.41;101819.09;4967767;28;20733;-92
2022/04/26 11:30:38;;;;;;;7.57;5.13;;;;;;;20.24;34.31;101819.91;4981114;28;20104;-90
2022/04/26 11:33:05;;;;;;;7.63;4.83;;;;;;;20.36;33.58;101816.38;4987854;28;20066;-90
2022/04/26 11:35:31;;;;;;;8.43;5.22;;;;;;;20.43;32.97;101810.63;4972223;28;20153;-90
2022/04/26 11:38:05;;;;;;;7.40;4.63;;;;;;;20.23;33.01;101815.47;4976779;28;20126;-91
2022/04/26 11:40:38;;;;;;;6.25;4.95;;;;;;;20.53;33.05;101807.25;4970877;28;20393;-91
2022/04/26 11:43:14;;;;;;;7.35;5.07;;;;;;;20.55;33.45;101817.88;4983367;28;20042;-90
2022/04/26 11:45:43;;;;;;;6.65;5.43;;;;;;;20.78;32.25;101809.16;4970110;28;20061;-91
2022/04/26 11:48:14;;;;;;;6.88;5.28;;;;;;;21.31;33.72;101819.91;4971912;28;20023;-92
2022/04/26 11:50:41;;;;;;;7.38;4.72;;;;;;;20.92;31.22;101831.53;4980878;28;20794;-93
2022/04/26 11:53:09;;;;;;;6.60;5.40;;;;;;;20.51;32.12;101833.34;4988060;28;20034;-91
2022/04/26 11:55:37;;;;;;;5.88;4.93;;;;;;;20.46;31.21;101829.22;4972505;28;20045;-92
2022/04/26 11:58:08;;;;;;;7.80;4.93;;;;;;;20.66;31.38;101844.94;4986749;28;20081;-91
2022/04/26 12:00:35;;;;;;;5.80;5.00;;;;;;;20.88;30.46;101842.50;4969637;28;20096;-92
2022/04/26 12:03:02;;;;;;;5.93;4.45;;;;;;;20.95;30.14;101844.78;4990286;28;20144;-93
2022/04/26 12:05:29;;;;;;;8.23;4.57;;;;;;;21.11;30.54;101834.69;4974330;28;20026;-92
2022/04/26 12:07:55;;;;;;;7.25;4.68;;;;;;;21.42;30.33;101836.16;4986354;28;20080;-91
2022/04/26 12:10:33;;;;;;;6.10;4.45;;;;;;;21.31;30.40;101844.09;4975925;28;20061;-92
2022/04/26 12:13:02;;;;;;;5.95;4.78;;;;;;;21.09;29.73;101850.94;4989379;28;20034;-93
2022/04/26 12:15:29;;;;;;;6.07;4.72;;;;;;;21.17;30.20;101828.91;4977426;28;20026;-92
2022/04/26 12:18:14;;;;;;;8.35;4.88;;;;;;;21.41;30.22;101830.91;4994165;28;20022;-93
2022/04/26 12:20:59;;;;;;;5.38;4.85;;;;;;;20.90;29.44;101837.03;4987766;28;20046;-93
2022/04/26 12:23:26;;;;;;;11.95;5.20;;;;;;;20.80;29.51;101834.13;4990683;28;20105;-93
2022/04/26 12:26:03;;;;;;;5.47;4.97;;;;;;;21.20;29.43;101836.75;4993112;28;20088;-94
2022/04/26 12:28:29;;;;;;;9.50;4.95;;;;;;;21.17;28.61;101833.41;4974181;28;20512;-95
2022/04/26 12:30:55;;;;;;;5.57;4.40;;;;;;;21.56;28.50;101836.06;4977720;28;20033;-93
2022/04/26 12:33:32;;;;;;;9.50;5.13;;;;;;;21.73;28.66;101834.88;4993300;28;20492;-94
2022/04/26 12:36:03;;;;;;;9.75;5.15;;;;;;;21.17;29.26;101842.38;4986938;28;20034;-94
2022/04/26 12:38:29;;;;;;;5.80;4.77;;;;;;;20.79;29.66;101843.13;4971530;28;20105;-93
2022/04/26 12:41:04;;;;;;;8.93;4.72;;;;;;;20.32;29.21;101844.41;4972694;28;20831;-94
2022/04/26 12:43:33;;;;;;;5.72;4.03;;;;;;;20.06;29.58;101826.47;4977984;28;20026;-92
2022/04/26 12:46:01;;;;;;;6.20;4.47;;;;;;;20.60;29.09;101829.19;4975183;28;20171;-93
2022/04/26 12:51:17;;;;;;;5.05;4.30;;;;;;;21.19;28.18;101829.66;4990000;28;20034;-93
2022/04/26 12:53:43;;;;;;;5.75;4.22;;;;;;;21.27;27.59;101840.75;4973010;28;20061;-95
2022/04/26 12:56:10;;;;;;;4.85;3.63;;;;;;;21.08;27.90;101826.84;4974668;28;20081;-94
2022/04/26 12:58:40;;;;;;;5.03;3.78;;;;;;;21.36;29.23;101836.59;4993725;28;20428;-93
2022/04/26 13:01:07;;;;;;;5.65;4.13;;;;;;;21.80;27.39;101838.81;4975195;28;20405;-93
2022/04/26 13:03:33;;;;;;;6.53;4.70;;;;;;;21.36;27.55;101834.78;4973992;28;20011;-94
2022/04/26 13:06:17;;;;;;;6.43;4.47;;;;;;;20.98;29.06;101836.50;4986424;28;20022;-94
2022/04/26 13:08:48;;;;;;;8.70;4.32;;;;;;;21.04;28.65;101830.72;4970787;28;20023;-93
2022/04/26 13:11:18;;;;;;;5.50;4.70;;;;;;;21.25;29.18;101834.59;4994924;28;20044;-92
2022/04/26 13:13:49;;;;;;;5.85;4.50;;;;;;;21.36;29.29;101832.09;4971268;28;20130;-94
2022/04/26 13:16:19;;;;;;;6.57;4.90;;;;;;;21.03;29.00;101820.91;4974394;28;20512;-93
2022/04/26 13:18:45;;;;;;;6.70;4.82;;;;;;;20.86;29.51;101820.25;4976915;28;20288;-92
2022/04/26 13:21:11;;;;;;;5.50;4.18;;;;;;;20.76;29.61;101831.72;4972343;28;20466;-93
2022/04/26 13:23:38;;;;;;;4.93;4.00;;;;;;;20.91;29.44;101833.38;4974752;28;20472;-91
2022/04/26 13:26:06;;;;;;;7.93;4.85;;;;;;;20.98;28.60;101831.97;4996417;28;20088;-93
2022/04/26 13:28:31;;;;;;;5.47;4.00;;;;;;;21.25;28.71;101826.53;4994173;28;20025;-93
2022/04/26 13:30:57;;;;;;;6.80;4.57;;;;;;;21.22;28.09;101832.16;4974361;28;20041;-91
2022/04/26 13:33:22;;;;;;;4.70;4.00;;;;;;;21.67;29.84;101835.28;4990293;28;20033;-92
2022/04/26 13:35:48;;;;;;;11.07;3.90;;;;;;;21.94;27.98;101828.91;4989200;28;20109;-92
2022/04/26 13:38:14;;;;;;;6.78;4.30;;;;;;;21.99;28.69;101824.91;4991593;28;20026;-91
2022/04/26 13:40:41;;;;;;;6.43;4.88;;;;;;;22.35;28.23;101837.53;4977643;28;20040;-92
2022/04/26 13:43:10;;;;;;;9.27;4.70;;;;;;;22.13;27.67;101826.63;4991819;28;20478;-93
2022/04/26 13:45:36;;;;;;;6.00;4.30;;;;;;;21.77;28.76;101820.19;4995581;28;20037;-92
2022/04/26 13:48:08;;;;;;;6.75;4.70;;;;;;;21.33;29.65;101837.66;4992865;28;20064;-93
2022/04/26 13:50:35;;;;;;;5.80;4.38;;;;;;;21.07;29.74;101843.94;4976767;28;20470;-93
2022/04/26 13:53:00;;;;;;;6.30;4.32;;;;;;;21.02;29.82;101838.00;4991479;28;20500;-91
2022/04/26 13:55:26;;;;;;;8.40;4.63;;;;;;;20.92;30.23;101824.34;4989946;28;20050;-93
2022/04/26 13:57:54;;;;;;;7.80;4.93;;;;;;;20.78;29.75;101851.28;4994753;28;20124;-93
2022/04/26 14:00:20;;;;;;;6.10;4.38;;;;;;;20.35;30.51;101838.00;4991592;28;20891;-94
2022/04/26 14:02:46;;;;;;;7.60;4.55;;;;;;;20.35;31.11;101859.47;4968235;28;20023;-92
2022/04/26 14:05:13;;;;;;;6.05;4.38;;;;;;;20.30;31.21;101830.22;4973014;28;20073;-92
2022/04/26 14:07:38;;;;;;;7.07;4.20;;;;;;;20.14;30.72;101840.22;4988596;28;21078;-93
2022/04/26 14:10:04;;;;;;;4.53;3.97;;;;;;;20.10;30.67;101838.72;4989643;28;20030;-94
2022/04/26 14:12:30;;;;;;;7.28;4.07;;;;;;;19.81;31.31;101828.00;4972670;28;21422;-93
2022/04/26 14:23:07;;;;;;;5.63;4.15;;;;;;;19.90;31.00;101837.28;4988723;28;20930;-92
2022/04/26 14:25:32;;;;;;;11.48;4.47;;;;;;;19.77;30.49;101849.75;4977656;28;20085;-93
2022/04/26 14:27:57;;;;;;;5.43;4.10;;;;;;;19.72;30.22;101839.31;4993467;28;20025;-93
2022/04/26 14:30:23;;;;;;;4.95;3.97;;;;;;;19.50;30.92;101860.38;4993688;28;20501;-93
2022/04/26 14:32:49;;;;;;;6.57;3.97;;;;;;;19.40;31.49;101848.47;4991051;28;20033;-94
2022/04/26 14:35:14;;;;;;;5.32;3.67;;;;;;;19.40;31.19;101856.50;4974866;28;20041;-94
2022/04/26 14:37:42;;;;;;;4.95;3.97;;;;;;;19.18;31.89;101848.91;4973437;28;20034;-94
2022/04/26 14:40:09;;;;;;;4.70;3.75;;;;;;;19.04;31.90;101849.75;4971432;28;20046;-93
2022/04/26 14:42:35;;;;;;;8.30;4.15;;;;;;;18.93;32.70;101853.06;4990338;28;20037;-93
2022/04/26 14:45:00;;;;;;;4.82;3.78;;;;;;;18.90;32.15;101855.06;4977690;28;20030;-93
2022/04/26 14:47:29;;;;;;;5.53;3.83;;;;;;;18.84;34.39;101854.47;4979461;28;20204;-92
2022/04/26 14:49:57;;;;;;;8.15;3.80;;;;;;;18.79;32.43;101850.31;4971866;28;20058;-93
2022/04/26 14:52:23;;;;;;;5.38;4.05;;;;;;;18.76;32.85;101853.19;4992634;28;20113;-92
2022/04/26 14:54:48;;;;;;;4.40;3.70;;;;;;;18.53;31.96;101858.03;4977367;28;20143;-93
2022/04/26 14:57:17;;;;;;;8.93;4.40;;;;;;;18.27;33.45;101845.25;4975525;28;20449;-93
2022/04/26 14:59:46;;;;;;;5.93;3.97;;;;;;;18.39;33.33;101865.97;4979311;28;20401;-94
2022/04/26 15:02:14;;;;;;;3.88;3.47;;;;;;;18.30;32.82;101861.16;4971294;28;20101;-93
2022/04/26 15:04:40;;;;;;;5.00;4.22;;;;;;;18.00;33.98;101845.84;4993871;28;20144;-93
2022/04/26 15:07:05;;;;;;;5.40;3.90;;;;;;;18.02;33.42;101868.03;4972303;28;20042;-92
2022/04/26 15:09:43;;;;;;;8.85;3.92;;;;;;;17.83;34.08;101845.91;4994780;28;20026;-91
2022/04/26 15:17:42;;;;;;;4.60;3.60;;;;;;;17.98;33.29;101855.75;4987486;28;20289;-93
2022/04/26 15:20:09;;;;;;;5.45;3.63;;;;;;;18.25;32.37;101858.72;4975677;28;20035;-93
2022/04/26 15:22:37;;;;;;;5.95;3.78;;;;;;;18.26;32.61;101855.09;4976371;28;20117;-93
2022/04/26 15:25:06;;;;;;;5.40;3.83;;;;;;;18.24;32.77;101872.22;4980087;28;20477;-92
2022/04/26 15:27:32;;;;;;;6.35;3.60;;;;;;;18.13;32.70;101862.06;4976525;28;20520;-91
2022/04/26 15:29:57;;;;;;;5.45;3.88;;;;;;;17.94;32.23;101845.31;4990005;28;20037;-93
2022/04/26 15:32:25;;;;;;;7.15;3.72;;;;;;;17.95;32.79;101844.34;4972731;28;20052;-91
2022/04/26 15:34:51;;;;;;;5.97;3.97;;;;;;;18.28;32.59;101871.94;4992111;28;20041;-93
2022/04/26 15:37:16;;;;;;;4.82;3.50;;;;;;;18.40;31.61;101840.06;4973339;28;20034;-91
2022/04/26 15:39:42;;;;;;;5.68;3.65;;;;;;;18.51;30.90;101870.66;4995756;28;20034;-92